Thomasville, GA (31757)

12:00 PM EST on March 04, 2015 (GMT -0500)
Glen Arven CC | Change Station
CLOSE
Current Station
Personal Weather Station
Location: Glen Arven CC, GA
Elevation: 276 ft
Nearby Weather Stations

Elev 276 ft 30.82 °N, 83.96 °W | Updated 11 minutes ago

Overcast
Overcast
77.0 °F
Feels Like 79 °F
N
4.3
Wind Variable Wind from SW

Today
High -- | Low -- °F
--% Chance of Precip.
Yesterday
High -- | Low -- °F
Precip. -- in
6:58 AM 6:36 PM
Waxing Gibbous, 99% visible
Pressure 30.13 in
Visibility 10.0 miles
Clouds Mostly Cloudy 2500 ft
Mostly Cloudy 3200 ft
Overcast 3800 ft
Heat Index 79 °F
Dew Point 65 °F
Humidity 67%
Rainfall 0.00 in
Snow Depth Not available.
UV 2 out of 12
Pollen 9.60 out of 12
Air Quality Not available.
Flu Activity Not available.
METAR KTVI 041635Z AUTO 20015G19KT 10SM BKN025 BKN032 OVC038 26/18 A3013 RMK AO2

More Conditions Fewer Conditions

Pressure 30.13 in
Visibility 10.0 miles
Clouds Mostly Cloudy 2500 ft
Mostly Cloudy 3200 ft
Overcast 3800 ft
Heat Index 79 °F
Dew Point 65 °F
Humidity 67%
Rainfall 0.00 in
Snow Depth Not available.
UV 2 out of 12
Pollen 9.60 out of 12
Air Quality Not available.
Flu Activity Not available.
METAR KTVI 041635Z AUTO 20015G19KT 10SM BKN025 BKN032 OVC038 26/18 A3013 RMK AO2

More Conditions Fewer Conditions

10-Day Weather Forecast

Almanac

Astronomy

Mar. 04, 2015 Rise Set
Actual Time
Civil Twilight
Nautical Twilight
Astronomical Twilight
Moon
Length of Visible Light
Length of Day
Tomorrow will be .
, % of the Moon is Illuminated

Today's Extremes

State Highs State Lows

Community

WunderPhotos

Upload Photos

1,802,505 photos uploaded!

WunderBlogs® & News

Nearby

Air Quality

  Air Quality AQ Index Pollutant
Not available.

Snow Depth

Station Depth Elevation

Earthquake Activity

City Distance Mag. Time & Date
Minimum magnitude displayed is 2.5.

Coastal Water Temperatures

Place Temperature

Nearby Weather Stations